sensor_id;sensor_type;location;lat;lon;timestamp;pressure;altitude;pressure_sealevel;temperature;humidity
36748;BME280;22716;51.556;5.080;2023-05-14T00:00:08;101288.16;;;15.46;100.00
36748;BME280;22716;51.556;5.080;2023-05-14T00:02:40;101293.47;;;15.45;100.00
36748;BME280;22716;51.556;5.080;2023-05-14T00:05:09;101286.53;;;15.41;100.00
36748;BME280;22716;51.556;5.080;2023-05-14T00:07:37;101288.41;;;15.36;100.00
36748;BME280;22716;51.556;5.080;2023-05-14T00:10:08;101285.88;;;15.31;100.00
36748;BME280;22716;51.556;5.080;2023-05-14T00:12:36;101286.84;;;15.27;100.00
36748;BME280;22716;51.556;5.080;2023-05-14T00:15:07;101279.06;;;15.21;100.00
36748;BME280;22716;51.556;5.080;2023-05-14T00:17:36;101279.94;;;15.22;100.00
36748;BME280;22716;51.556;5.080;2023-05-14T00:20:11;101273.84;;;15.18;100.00
36748;BME280;22716;51.556;5.080;2023-05-14T00:22:40;101266.84;;;15.17;100.00
36748;BME280;22716;51.556;5.080;2023-05-14T00:25:09;101276.47;;;15.20;100.00
36748;BME280;22716;51.556;5.080;2023-05-14T00:27:38;101266.09;;;15.10;100.00
36748;BME280;22716;51.556;5.080;2023-05-14T00:30:07;101266.94;;;15.12;100.00
36748;BME280;22716;51.556;5.080;2023-05-14T00:32:36;101227.97;;;14.85;100.00
36748;BME280;22716;51.556;5.080;2023-05-14T00:35:08;101266.19;;;15.07;100.00
36748;BME280;22716;51.556;5.080;2023-05-14T00:37:37;101269.78;;;15.03;100.00
36748;BME280;22716;51.556;5.080;2023-05-14T00:40:08;101266.25;;;15.04;100.00
36748;BME280;22716;51.556;5.080;2023-05-14T00:42:38;101261.97;;;14.99;100.00
36748;BME280;22716;51.556;5.080;2023-05-14T00:45:08;101255.00;;;14.96;100.00
36748;BME280;22716;51.556;5.080;2023-05-14T00:47:37;101264.75;;;14.91;100.00
36748;BME280;22716;51.556;5.080;2023-05-14T00:50:10;101250.75;;;14.89;100.00
36748;BME280;22716;51.556;5.080;2023-05-14T00:52:40;101255.25;;;14.84;100.00
36748;BME280;22716;51.556;5.080;2023-05-14T00:55:10;101250.94;;;14.80;100.00
36748;BME280;22716;51.556;5.080;2023-05-14T00:57:41;101248.41;;;14.74;100.00
36748;BME280;22716;51.556;5.080;2023-05-14T01:00:11;101250.22;;;14.72;100.00
36748;BME280;22716;51.556;5.080;2023-05-14T01:02:40;101247.47;;;14.78;100.00
36748;BME280;22716;51.556;5.080;2023-05-14T01:05:12;101243.16;;;14.74;100.00
36748;BME280;22716;51.556;5.080;2023-05-14T01:07:48;101237.03;;;14.72;100.00
36748;BME280;22716;51.556;5.080;2023-05-14T01:10:23;101239.81;;;14.66;100.00
36748;BME280;22716;51.556;5.080;2023-05-14T01:13:01;101243.34;;;14.65;100.00
36748;BME280;22716;51.556;5.080;2023-05-14T01:15:33;101241.63;;;14.64;100.00
36748;BME280;22716;51.556;5.080;2023-05-14T01:18:07;101245.91;;;14.68;100.00
36748;BME280;22716;51.556;5.080;2023-05-14T01:20:38;101242.38;;;14.69;100.00
36748;BME280;22716;51.556;5.080;2023-05-14T01:23:10;101235.28;;;14.73;100.00
36748;BME280;22716;51.556;5.080;2023-05-14T01:25:39;101230.97;;;14.69;100.00
36748;BME280;22716;51.556;5.080;2023-05-14T01:28:13;101236.28;;;14.67;100.00
36748;BME280;22716;51.556;5.080;2023-05-14T01:30:48;101236.41;;;14.59;100.00
36748;BME280;22716;51.556;5.080;2023-05-14T01:33:20;101246.16;;;14.56;100.00
36748;BME280;22716;51.556;5.080;2023-05-14T01:35:49;101237.53;;;14.48;100.00
36748;BME280;22716;51.556;5.080;2023-05-14T01:38:23;101241.22;;;14.39;100.00
36748;BME280;22716;51.556;5.080;2023-05-14T01:40:52;101222.16;;;14.25;100.00
36748;BME280;22716;51.556;5.080;2023-05-14T01:43:22;101230.81;;;14.32;100.00
36748;BME280;22716;51.556;5.080;2023-05-14T01:45:51;101228.19;;;14.33;100.00
36748;BME280;22716;51.556;5.080;2023-05-14T01:48:20;101228.25;;;14.29;100.00
36748;BME280;22716;51.556;5.080;2023-05-14T01:50:49;101224.72;;;14.28;100.00
36748;BME280;22716;51.556;5.080;2023-05-14T01:53:17;101218.66;;;14.25;100.00
36748;BME280;22716;51.556;5.080;2023-05-14T01:55:49;101220.41;;;14.26;100.00
36748;BME280;22716;51.556;5.080;2023-05-14T01:58:17;101205.56;;;14.20;100.00
36748;BME280;22716;51.556;5.080;2023-05-14T02:00:46;101215.19;;;14.23;100.00
36748;BME280;22716;51.556;5.080;2023-05-14T02:03:15;101217.84;;;14.21;100.00
36748;BME280;22716;51.556;5.080;2023-05-14T02:05:44;101207.44;;;14.14;100.00
36748;BME280;22716;51.556;5.080;2023-05-14T02:08:12;101213.56;;;14.16;100.00
36748;BME280;22716;51.556;5.080;2023-05-14T02:10:41;101218.88;;;14.13;100.00
36748;BME280;22716;51.556;5.080;2023-05-14T02:13:13;101218.09;;;14.08;100.00
36748;BME280;22716;51.556;5.080;2023-05-14T02:15:42;101209.44;;;14.02;100.00
36748;BME280;22716;51.556;5.080;2023-05-14T02:18:11;101207.56;;;14.06;100.00
36748;BME280;22716;51.556;5.080;2023-05-14T02:20:40;101212.84;;;14.08;100.00
36748;BME280;22716;51.556;5.080;2023-05-14T02:23:08;101202.47;;;13.98;100.00
36748;BME280;22716;51.556;5.080;2023-05-14T02:25:37;101213.13;;;13.92;100.00
36748;BME280;22716;51.556;5.080;2023-05-14T02:28:06;101213.16;;;13.91;100.00
36748;BME280;22716;51.556;5.080;2023-05-14T02:30:37;101198.59;;;13.70;100.00
36748;BME280;22716;51.556;5.080;2023-05-14T02:33:06;101218.75;;;13.71;100.00
36748;BME280;22716;51.556;5.080;2023-05-14T02:35:34;101219.69;;;13.69;100.00
36748;BME280;22716;51.556;5.080;2023-05-14T02:38:03;101202.28;;;13.60;100.00
36748;BME280;22716;51.556;5.080;2023-05-14T02:40:32;101208.53;;;13.55;100.00
36748;BME280;22716;51.556;5.080;2023-05-14T02:43:01;101208.53;;;13.55;100.00
36748;BME280;22716;51.556;5.080;2023-05-14T02:45:30;101208.56;;;13.53;100.00
36748;BME280;22716;51.556;5.080;2023-05-14T02:48:02;101206.72;;;13.58;100.00
36748;BME280;22716;51.556;5.080;2023-05-14T02:50:31;101203.22;;;13.58;100.00
36748;BME280;22716;51.556;5.080;2023-05-14T02:52:59;101210.31;;;13.53;100.00
36748;BME280;22716;51.556;5.080;2023-05-14T02:55:28;101202.38;;;13.54;100.00
36748;BME280;22716;51.556;5.080;2023-05-14T02:57:57;101202.53;;;13.46;100.00
36748;BME280;22716;51.556;5.080;2023-05-14T03:00:25;101198.97;;;13.47;100.00
36748;BME280;22716;51.556;5.080;2023-05-14T03:02:54;101195.56;;;13.44;100.00
36748;BME280;22716;51.556;5.080;2023-05-14T03:05:26;101186.00;;;13.37;100.00
36748;BME280;22716;51.556;5.080;2023-05-14T03:07:54;101195.59;;;13.41;100.00
36748;BME280;22716;51.556;5.080;2023-05-14T03:10:23;101192.16;;;13.36;100.00
36748;BME280;22716;51.556;5.080;2023-05-14T03:12:51;101186.88;;;13.36;100.00
36748;BME280;22716;51.556;5.080;2023-05-14T03:15:20;101194.63;;;13.46;100.00
36748;BME280;22716;51.556;5.080;2023-05-14T03:17:49;101187.75;;;13.38;100.00
36748;BME280;22716;51.556;5.080;2023-05-14T03:20:18;101168.66;;;13.25;100.00
36748;BME280;22716;51.556;5.080;2023-05-14T03:22:49;101189.56;;;13.34;100.00
36748;BME280;22716;51.556;5.080;2023-05-14T03:25:19;101192.19;;;13.33;100.00
36748;BME280;22716;51.556;5.080;2023-05-14T03:27:47;101190.47;;;13.32;100.00
36748;BME280;22716;51.556;5.080;2023-05-14T03:30:16;101177.47;;;13.23;100.00
36748;BME280;22716;51.556;5.080;2023-05-14T03:32:45;101184.53;;;13.21;100.00
36748;BME280;22716;51.556;5.080;2023-05-14T03:35:14;101169.66;;;13.17;100.00
36748;BME280;22716;51.556;5.080;2023-05-14T03:37:42;101181.84;;;13.22;100.00
36748;BME280;22716;51.556;5.080;2023-05-14T03:40:14;101171.31;;;13.24;100.00
36748;BME280;22716;51.556;5.080;2023-05-14T03:42:43;101174.75;;;13.27;100.00
36748;BME280;22716;51.556;5.080;2023-05-14T03:45:12;101177.47;;;13.23;100.00
36748;BME280;22716;51.556;5.080;2023-05-14T03:47:41;101177.47;;;13.23;100.00
36748;BME280;22716;51.556;5.080;2023-05-14T03:50:09;101177.47;;;13.21;100.00
36748;BME280;22716;51.556;5.080;2023-05-14T03:52:38;101175.72;;;13.22;100.00
36748;BME280;22716;51.556;5.080;2023-05-14T03:55:09;101169.78;;;13.09;100.00
36748;BME280;22716;51.556;5.080;2023-05-14T03:57:40;101177.72;;;13.08;100.00
36748;BME280;22716;51.556;5.080;2023-05-14T04:00:11;101183.84;;;13.08;100.00
36748;BME280;22716;51.556;5.080;2023-05-14T04:02:40;101177.66;;;13.09;100.00
36748;BME280;22716;51.556;5.080;2023-05-14T04:05:09;101164.47;;;13.12;100.00
36748;BME280;22716;51.556;5.080;2023-05-14T04:07:38;101168.03;;;13.10;100.00
36748;BME280;22716;51.556;5.080;2023-05-14T04:10:08;101171.50;;;13.12;100.00
36748;BME280;22716;51.556;5.080;2023-05-14T04:12:40;101172.41;;;13.09;100.00
36748;BME280;22716;51.556;5.080;2023-05-14T04:15:10;101167.19;;;13.06;100.00
36748;BME280;22716;51.556;5.080;2023-05-14T04:17:39;101152.38;;;12.98;100.00
36748;BME280;22716;51.556;5.080;2023-05-14T04:20:09;101165.44;;;13.04;100.00
36748;BME280;22716;51.556;5.080;2023-05-14T04:22:38;101156.78;;;12.99;100.00
36748;BME280;22716;51.556;5.080;2023-05-14T04:25:07;101166.38;;;13.01;100.00
36748;BME280;22716;51.556;5.080;2023-05-14T04:27:36;101162.81;;;13.05;100.00
36748;BME280;22716;51.556;5.080;2023-05-14T04:30:09;101162.81;;;13.04;100.00
36748;BME280;22716;51.556;5.080;2023-05-14T04:32:38;101170.75;;;13.02;100.00
36748;BME280;22716;51.556;5.080;2023-05-14T04:35:08;101165.44;;;13.05;100.00
36748;BME280;22716;51.556;5.080;2023-05-14T04:37:37;101169.88;;;13.03;100.00
36748;BME280;22716;51.556;5.080;2023-05-14T04:40:08;101179.47;;;13.06;100.00
36748;BME280;22716;51.556;5.080;2023-05-14T04:42:38;101179.44;;;13.07;100.00
36748;BME280;22716;51.556;5.080;2023-05-14T04:45:10;101171.56;;;13.09;100.00
36748;BME280;22716;51.556;5.080;2023-05-14T04:47:40;101169.78;;;13.11;100.00
36748;BME280;22716;51.556;5.080;2023-05-14T04:50:09;101170.56;;;13.16;100.00
36748;BME280;22716;51.556;5.080;2023-05-14T04:52:39;101167.00;;;13.18;100.00
36748;BME280;22716;51.556;5.080;2023-05-14T04:55:09;101169.59;;;13.21;100.00
36748;BME280;22716;51.556;5.080;2023-05-14T04:57:37;101173.97;;;13.24;100.00
36748;BME280;22716;51.556;5.080;2023-05-14T05:00:10;101173.91;;;13.25;100.00
36748;BME280;22716;51.556;5.080;2023-05-14T05:02:40;101153.94;;;13.12;100.00
36748;BME280;22716;51.556;5.080;2023-05-14T05:05:09;101163.34;;;13.27;100.00
36748;BME280;22716;51.556;5.080;2023-05-14T05:07:38;101167.72;;;13.28;100.00
36748;BME280;22716;51.556;5.080;2023-05-14T05:10:08;101172.94;;;13.31;100.00
36748;BME280;22716;51.556;5.080;2023-05-14T05:12:37;101178.25;;;13.28;100.00
36748;BME280;22716;51.556;5.080;2023-05-14T05:15:10;101176.34;;;13.36;100.00
36748;BME280;22716;51.556;5.080;2023-05-14T05:17:38;101175.63;;;13.29;100.00
36748;BME280;22716;51.556;5.080;2023-05-14T05:20:08;101187.97;;;13.24;100.00
36748;BME280;22716;51.556;5.080;2023-05-14T05:22:37;101175.69;;;13.25;100.00
36748;BME280;22716;51.556;5.080;2023-05-14T05:25:07;101177.38;;;13.29;100.00
36748;BME280;22716;51.556;5.080;2023-05-14T05:27:37;101184.31;;;13.33;100.00
36748;BME280;22716;51.556;5.080;2023-05-14T05:30:10;101175.38;;;13.43;100.00
36748;BME280;22716;51.556;5.080;2023-05-14T05:32:39;101174.44;;;13.47;100.00
36748;BME280;22716;51.556;5.080;2023-05-14T05:35:09;101184.81;;;13.56;100.00
36748;BME280;22716;51.556;5.080;2023-05-14T05:37:37;101180.28;;;13.63;100.00
36748;BME280;22716;51.556;5.080;2023-05-14T05:40:08;101182.03;;;13.64;100.00
36748;BME280;22716;51.556;5.080;2023-05-14T05:42:38;101187.16;;;13.71;100.00
36748;BME280;22716;51.556;5.080;2023-05-14T05:45:10;101195.91;;;13.73;100.00
36748;BME280;22716;51.556;5.080;2023-05-14T05:47:39;101195.97;;;13.69;100.00
36748;BME280;22716;51.556;5.080;2023-05-14T05:50:09;101193.28;;;13.73;100.00
36748;BME280;22716;51.556;5.080;2023-05-14T05:52:38;101189.00;;;13.66;100.00
36748;BME280;22716;51.556;5.080;2023-05-14T05:55:08;101186.47;;;13.62;100.00
36748;BME280;22716;51.556;5.080;2023-05-14T05:57:37;101194.31;;;13.65;100.00
36748;BME280;22716;51.556;5.080;2023-05-14T06:00:10;101194.22;;;13.69;100.00
36748;BME280;22716;51.556;5.080;2023-05-14T06:02:41;101203.88;;;13.70;100.00
36748;BME280;22716;51.556;5.080;2023-05-14T06:05:10;101195.16;;;13.67;100.00
36748;BME280;22716;51.556;5.080;2023-05-14T06:07:39;101199.47;;;13.71;100.00
36748;BME280;22716;51.556;5.080;2023-05-14T06:10:08;101199.50;;;13.69;100.00
36748;BME280;22716;51.556;5.080;2023-05-14T06:12:37;101192.41;;;13.73;100.00
36748;BME280;22716;51.556;5.080;2023-05-14T06:15:10;101211.47;;;13.87;100.00
36748;BME280;22716;51.556;5.080;2023-05-14T06:17:39;101213.09;;;13.94;100.00
36748;BME280;22716;51.556;5.080;2023-05-14T06:20:09;101215.38;;;14.12;100.00
36748;BME280;22716;51.556;5.080;2023-05-14T06:22:38;101218.41;;;14.38;100.00
36748;BME280;22716;51.556;5.080;2023-05-14T06:25:08;101211.06;;;14.54;100.00
36748;BME280;22716;51.556;5.080;2023-05-14T06:27:37;101215.31;;;14.59;100.00
36748;BME280;22716;51.556;5.080;2023-05-14T06:30:10;101214.25;;;14.68;100.00
36748;BME280;22716;51.556;5.080;2023-05-14T06:32:39;101217.69;;;14.73;100.00
36748;BME280;22716;51.556;5.080;2023-05-14T06:35:08;101221.22;;;14.71;100.00
36748;BME280;22716;51.556;5.080;2023-05-14T06:37:37;101226.03;;;14.93;100.00
36748;BME280;22716;51.556;5.080;2023-05-14T06:40:07;101217.97;;;14.99;100.00
36748;BME280;22716;51.556;5.080;2023-05-14T06:42:37;101210.13;;;14.96;100.00
36748;BME280;22716;51.556;5.080;2023-05-14T06:45:07;101209.66;;;14.79;100.00
36748;BME280;22716;51.556;5.080;2023-05-14T06:47:38;101217.56;;;14.79;100.00
36748;BME280;22716;51.556;5.080;2023-05-14T06:50:08;101221.91;;;14.82;100.00
36748;BME280;22716;51.556;5.080;2023-05-14T06:52:37;101210.34;;;14.86;100.00
36748;BME280;22716;51.556;5.080;2023-05-14T06:55:09;101214.28;;;15.06;100.00
36748;BME280;22716;51.556;5.080;2023-05-14T06:57:37;101207.09;;;15.13;100.00
36748;BME280;22716;51.556;5.080;2023-05-14T07:00:08;101217.56;;;15.18;100.00
36748;BME280;22716;51.556;5.080;2023-05-14T07:02:39;101209.19;;;15.36;100.00
36748;BME280;22716;51.556;5.080;2023-05-14T07:05:09;101213.78;;;15.28;100.00
36748;BME280;22716;51.556;5.080;2023-05-14T07:07:38;101228.31;;;15.45;100.00
36748;BME280;22716;51.556;5.080;2023-05-14T07:10:07;101222.06;;;15.51;100.00
36748;BME280;22716;51.556;5.080;2023-05-14T07:12:36;101227.44;;;15.45;100.00
36748;BME280;22716;51.556;5.080;2023-05-14T07:15:06;101219.94;;;15.65;100.00
36748;BME280;22716;51.556;5.080;2023-05-14T07:17:39;101219.63;;;15.77;100.00
36748;BME280;22716;51.556;5.080;2023-05-14T07:20:09;101217.38;;;15.96;100.00
36748;BME280;22716;51.556;5.080;2023-05-14T07:22:38;101230.38;;;16.03;100.00
36748;BME280;22716;51.556;5.080;2023-05-14T07:25:07;101228.50;;;15.75;100.00
36748;BME280;22716;51.556;5.080;2023-05-14T07:27:36;101229.25;;;15.80;100.00
36748;BME280;22716;51.556;5.080;2023-05-14T07:30:07;101216.50;;;15.95;100.00
36748;BME280;22716;51.556;5.080;2023-05-14T07:32:35;101231.72;;;16.19;100.00
36748;BME280;22716;51.556;5.080;2023-05-14T07:35:08;101224.50;;;16.24;100.00
36748;BME280;22716;51.556;5.080;2023-05-14T07:37:37;101220.91;;;16.27;100.00
36748;BME280;22716;51.556;5.080;2023-05-14T07:40:07;101217.06;;;16.06;100.00
36748;BME280;22716;51.556;5.080;2023-05-14T07:42:36;101209.81;;;15.82;100.00
36748;BME280;22716;51.556;5.080;2023-05-14T07:45:06;101213.28;;;15.84;100.00
36748;BME280;22716;51.556;5.080;2023-05-14T07:47:35;101188.31;;;15.96;100.00
36748;BME280;22716;51.556;5.080;2023-05-14T07:50:09;101189.84;;;16.03;100.00
36748;BME280;22716;51.556;5.080;2023-05-14T07:52:38;101201.91;;;16.14;100.00
36748;BME280;22716;51.556;5.080;2023-05-14T07:55:08;101197.91;;;16.31;100.00
36748;BME280;22716;51.556;5.080;2023-05-14T07:57:38;101191.50;;;16.39;100.00
36748;BME280;22716;51.556;5.080;2023-05-14T08:00:08;101202.34;;;16.61;100.00
36748;BME280;22716;51.556;5.080;2023-05-14T08:02:37;101205.03;;;16.59;100.00
36748;BME280;22716;51.556;5.080;2023-05-14T08:05:10;101202.34;;;16.61;100.00
36748;BME280;22716;51.556;5.080;2023-05-14T08:07:39;101200.38;;;16.67;100.00
36748;BME280;22716;51.556;5.080;2023-05-14T08:10:09;101203.31;;;16.58;100.00
36748;BME280;22716;51.556;5.080;2023-05-14T08:12:37;101198.34;;;16.46;100.00
36748;BME280;22716;51.556;5.080;2023-05-14T08:15:09;101189.00;;;16.35;100.00
36748;BME280;22716;51.556;5.080;2023-05-14T08:17:37;101202.59;;;16.52;100.00
36748;BME280;22716;51.556;5.080;2023-05-14T08:20:10;101201.75;;;16.50;100.00
36748;BME280;22716;51.556;5.080;2023-05-14T08:22:39;101196.06;;;16.33;100.00
36748;BME280;22716;51.556;5.080;2023-05-14T08:25:09;101207.59;;;16.30;100.00
36748;BME280;22716;51.556;5.080;2023-05-14T08:27:38;101206.88;;;16.25;100.00
36748;BME280;22716;51.556;5.080;2023-05-14T08:30:08;101216.75;;;16.18;100.00
36748;BME280;22716;51.556;5.080;2023-05-14T08:32:36;101209.03;;;16.11;100.00
36748;BME280;22716;51.556;5.080;2023-05-14T08:35:06;101209.00;;;16.12;100.00
36748;BME280;22716;51.556;5.080;2023-05-14T08:37:38;101220.66;;;16.05;100.00
36748;BME280;22716;51.556;5.080;2023-05-14T08:40:08;101212.66;;;16.07;100.00
36748;BME280;22716;51.556;5.080;2023-05-14T08:42:38;101203.88;;;16.06;100.00
36748;BME280;22716;51.556;5.080;2023-05-14T08:45:13;101206.88;;;15.93;100.00
36748;BME280;22716;51.556;5.080;2023-05-14T08:47:46;101200.72;;;15.94;100.00
36748;BME280;22716;51.556;5.080;2023-05-14T08:50:17;101194.94;;;16.10;100.00
36748;BME280;22716;51.556;5.080;2023-05-14T08:52:50;101187.41;;;16.27;100.00
36748;BME280;22716;51.556;5.080;2023-05-14T08:55:19;101195.31;;;16.60;100.00
36748;BME280;22716;51.556;5.080;2023-05-14T08:57:48;101197.50;;;16.75;100.00
36748;BME280;22716;51.556;5.080;2023-05-14T09:00:17;101191.75;;;16.90;100.00
36748;BME280;22716;51.556;5.080;2023-05-14T09:02:46;101190.88;;;16.90;100.00
36748;BME280;22716;51.556;5.080;2023-05-14T09:05:17;101196.59;;;17.04;100.00
36748;BME280;22716;51.556;5.080;2023-05-14T09:07:49;101185.34;;;16.97;100.00
36748;BME280;22716;51.556;5.080;2023-05-14T09:10:17;101184.25;;;17.04;100.00
36748;BME280;22716;51.556;5.080;2023-05-14T09:12:46;101190.97;;;17.14;100.00
36748;BME280;22716;51.556;5.080;2023-05-14T09:15:16;101188.38;;;17.13;100.00
36748;BME280;22716;51.556;5.080;2023-05-14T09:17:45;101182.78;;;16.94;100.00
36748;BME280;22716;51.556;5.080;2023-05-14T09:20:14;101181.25;;;16.87;100.00
36748;BME280;22716;51.556;5.080;2023-05-14T09:22:44;101173.59;;;16.78;100.00
36748;BME280;22716;51.556;5.080;2023-05-14T09:25:15;101177.78;;;16.85;100.00
36748;BME280;22716;51.556;5.080;2023-05-14T09:27:45;101176.94;;;16.85;100.00
36748;BME280;22716;51.556;5.080;2023-05-14T09:30:16;101169.94;;;16.82;100.00
36748;BME280;22716;51.556;5.080;2023-05-14T09:32:46;101174.09;;;16.91;100.00
36748;BME280;22716;51.556;5.080;2023-05-14T09:35:17;101168.50;;;17.00;100.00
36748;BME280;22716;51.556;5.080;2023-05-14T09:37:48;101166.97;;;16.93;100.00
36748;BME280;22716;51.556;5.080;2023-05-14T09:40:21;101171.00;;;17.04;100.00
36748;BME280;22716;51.556;5.080;2023-05-14T09:42:50;101154.97;;;17.09;100.00
36748;BME280;22716;51.556;5.080;2023-05-14T09:45:18;101161.28;;;17.05;100.00
36748;BME280;22716;51.556;5.080;2023-05-14T09:47:48;101149.47;;;17.15;100.00
36748;BME280;22716;51.556;5.080;2023-05-14T09:50:18;101157.19;;;17.22;100.00
36748;BME280;22716;51.556;5.080;2023-05-14T09:52:46;101159.66;;;17.27;100.00
36748;BME280;22716;51.556;5.080;2023-05-14T09:55:15;101148.16;;;17.28;100.00
36748;BME280;22716;51.556;5.080;2023-05-14T09:57:46;101154.88;;;17.38;100.00
36748;BME280;22716;51.556;5.080;2023-05-14T10:00:17;101154.56;;;17.47;100.00
36748;BME280;22716;51.556;5.080;2023-05-14T10:02:46;101157.09;;;17.52;100.00
36748;BME280;22716;51.556;5.080;2023-05-14T10:05:18;101154.44;;;17.52;100.00
36748;BME280;22716;51.556;5.080;2023-05-14T10:07:48;101145.38;;;17.59;100.00
36748;BME280;22716;51.556;5.080;2023-05-14T10:10:20;101147.03;;;17.61;100.00
36748;BME280;22716;51.556;5.080;2023-05-14T10:12:56;101144.53;;;17.58;100.00
36748;BME280;22716;51.556;5.080;2023-05-14T10:15:30;101142.25;;;17.72;100.00
36748;BME280;22716;51.556;5.080;2023-05-14T10:18:05;101136.44;;;17.87;100.00
36748;BME280;22716;51.556;5.080;2023-05-14T10:20:37;101143.19;;;17.96;100.00
36748;BME280;22716;51.556;5.080;2023-05-14T10:23:06;101141.53;;;18.17;100.00
36748;BME280;22716;51.556;5.080;2023-05-14T10:25:35;101138.13;;;18.36;100.00
36748;BME280;22716;51.556;5.080;2023-05-14T10:28:07;101133.63;;;18.38;100.00
36748;BME280;22716;51.556;5.080;2023-05-14T10:30:42;101132.53;;;18.44;100.00
36748;BME280;22716;51.556;5.080;2023-05-14T10:33:13;101143.31;;;18.39;99.61
36748;BME280;22716;51.556;5.080;2023-05-14T10:36:02;101133.94;;;18.31;99.26
36748;BME280;22716;51.556;5.080;2023-05-14T10:38:34;101129.94;;;18.42;99.37
36748;BME280;22716;51.556;5.080;2023-05-14T10:41:05;101124.91;;;18.58;98.95
36748;BME280;22716;51.556;5.080;2023-05-14T10:43:38;101133.16;;;18.74;98.75
36748;BME280;22716;51.556;5.080;2023-05-14T10:46:09;101128.91;;;18.70;98.98
36748;BME280;22716;51.556;5.080;2023-05-14T10:48:40;101116.47;;;18.70;99.53
36748;BME280;22716;51.556;5.080;2023-05-14T10:51:10;101120.31;;;18.85;99.75
36748;BME280;22716;51.556;5.080;2023-05-14T10:53:41;101124.84;;;18.83;99.37
36748;BME280;22716;51.556;5.080;2023-05-14T10:56:12;101122.97;;;18.85;99.09
36748;BME280;22716;51.556;5.080;2023-05-14T10:58:44;101116.88;;;18.83;98.83
36748;BME280;22716;51.556;5.080;2023-05-14T11:01:13;101111.56;;;18.83;98.47
36748;BME280;22716;51.556;5.080;2023-05-14T11:03:43;101103.16;;;18.93;98.67
36748;BME280;22716;51.556;5.080;2023-05-14T11:06:13;101114.41;;;19.00;97.79
36748;BME280;22716;51.556;5.080;2023-05-14T11:08:43;101100.13;;;19.02;97.82
36748;BME280;22716;51.556;5.080;2023-05-14T11:11:11;101094.50;;;19.10;96.76
36748;BME280;22716;51.556;5.080;2023-05-14T11:13:44;101097.44;;;19.24;96.10
36748;BME280;22716;51.556;5.080;2023-05-14T11:16:13;101091.81;;;19.32;95.98
36748;BME280;22716;51.556;5.080;2023-05-14T11:18:43;101088.97;;;19.36;95.76
36748;BME280;22716;51.556;5.080;2023-05-14T11:21:12;101091.28;;;19.45;95.46
36748;BME280;22716;51.556;5.080;2023-05-14T11:23:41;101108.09;;;19.66;94.53
36748;BME280;22716;51.556;5.080;2023-05-14T11:26:10;101095.09;;;19.79;93.32
36748;BME280;22716;51.556;5.080;2023-05-14T11:28:40;101088.06;;;19.78;92.55
36748;BME280;22716;51.556;5.080;2023-05-14T11:31:12;101086.06;;;19.83;91.85
36748;BME280;22716;51.556;5.080;2023-05-14T11:33:41;101083.91;;;19.91;91.44
36748;BME280;22716;51.556;5.080;2023-05-14T11:36:10;101077.41;;;19.98;91.36
36748;BME280;22716;51.556;5.080;2023-05-14T11:38:45;101084.41;;;20.19;90.50
36748;BME280;22716;51.556;5.080;2023-05-14T11:41:16;101076.72;;;20.32;89.33
36748;BME280;22716;51.556;5.080;2023-05-14T11:43:47;101081.69;;;20.39;88.13
36748;BME280;22716;51.556;5.080;2023-05-14T11:46:19;101078.03;;;20.42;86.73
36748;BME280;22716;51.556;5.080;2023-05-14T11:48:48;101074.94;;;20.51;86.08
36748;BME280;22716;51.556;5.080;2023-05-14T11:51:17;101069.09;;;20.61;85.76
36748;BME280;22716;51.556;5.080;2023-05-14T11:53:46;101082.19;;;20.66;85.03
36748;BME280;22716;51.556;5.080;2023-05-14T11:56:14;101065.97;;;20.71;84.82
36748;BME280;22716;51.556;5.080;2023-05-14T11:58:47;101060.50;;;20.74;84.91
36748;BME280;22716;51.556;5.080;2023-05-14T12:01:18;101078.25;;;20.92;84.70
36748;BME280;22716;51.556;5.080;2023-05-14T12:03:47;101066.72;;;21.10;83.88
36748;BME280;22716;51.556;5.080;2023-05-14T12:06:17;101063.50;;;21.20;82.98
36748;BME280;22716;51.556;5.080;2023-05-14T12:08:46;101058.78;;;21.26;82.44
36748;BME280;22716;51.556;5.080;2023-05-14T12:11:19;101066.09;;;21.39;82.15
36748;BME280;22716;51.556;5.080;2023-05-14T12:13:48;101070.88;;;21.33;81.96
36748;BME280;22716;51.556;5.080;2023-05-14T12:16:19;101067.03;;;21.38;81.59
36748;BME280;22716;51.556;5.080;2023-05-14T12:18:48;101070.81;;;21.51;80.78
36748;BME280;22716;51.556;5.080;2023-05-14T12:21:17;101054.09;;;21.48;80.37
36748;BME280;22716;51.556;5.080;2023-05-14T12:23:46;101056.66;;;21.49;79.33
36748;BME280;22716;51.556;5.080;2023-05-14T12:26:14;101054.31;;;21.60;78.71
36748;BME280;22716;51.556;5.080;2023-05-14T12:28:46;101064.97;;;21.77;77.57
36748;BME280;22716;51.556;5.080;2023-05-14T12:31:15;101035.94;;;21.71;76.46
36748;BME280;22716;51.556;5.080;2023-05-14T12:33:46;101057.88;;;21.94;75.29
36748;BME280;22716;51.556;5.080;2023-05-14T12:36:15;101039.47;;;22.05;74.79
36748;BME280;22716;51.556;5.080;2023-05-14T12:38:44;101051.22;;;22.18;72.98
36748;BME280;22716;51.556;5.080;2023-05-14T12:41:12;101041.56;;;22.31;72.24
36748;BME280;22716;51.556;5.080;2023-05-14T12:43:42;101033.38;;;22.34;72.33
36748;BME280;22716;51.556;5.080;2023-05-14T12:46:11;101045.19;;;22.46;71.79
36748;BME280;22716;51.556;5.080;2023-05-14T12:48:40;101042.28;;;22.50;69.42
36748;BME280;22716;51.556;5.080;2023-05-14T12:51:11;101042.97;;;22.38;68.50
36748;BME280;22716;51.556;5.080;2023-05-14T12:53:40;101034.72;;;22.43;66.47
36748;BME280;22716;51.556;5.080;2023-05-14T12:56:09;101035.81;;;22.54;65.54